createdAt,value
2023-04-30T00:00:37.713Z,11.63
2023-04-30T00:03:04.442Z,14.10
2023-04-30T00:05:31.148Z,12.70
2023-04-30T00:07:57.522Z,13.32
2023-04-30T00:10:23.903Z,12.77
2023-04-30T00:12:50.229Z,15.82
2023-04-30T00:15:16.649Z,13.77
2023-04-30T00:17:42.990Z,15.65
2023-04-30T00:20:09.794Z,13.43
2023-04-30T00:22:37.540Z,14.07
2023-04-30T00:25:04.144Z,14.35
2023-04-30T00:27:31.487Z,13.77
2023-04-30T00:29:58.462Z,13.65
2023-04-30T00:32:24.978Z,15.98
2023-04-30T00:34:51.406Z,13.60
2023-04-30T00:37:17.735Z,14.50
2023-04-30T00:39:44.109Z,14.38
2023-04-30T00:42:10.514Z,13.82
2023-04-30T00:44:36.878Z,15.80
2023-04-30T00:47:03.252Z,17.35
2023-04-30T00:49:29.581Z,15.70
2023-04-30T00:51:55.928Z,14.95
2023-04-30T00:54:23.388Z,18.45
2023-04-30T00:56:49.795Z,16.30
2023-04-30T00:59:16.567Z,15.60
2023-04-30T01:01:43.413Z,18.60
2023-04-30T01:04:10.654Z,15.40
2023-04-30T01:06:37.206Z,18.80
2023-04-30T01:09:03.831Z,17.30
2023-04-30T01:11:58.900Z,14.45
2023-04-30T01:14:29.128Z,18.48
2023-04-30T01:17:22.046Z,16.30
2023-04-30T01:19:48.513Z,18.77
2023-04-30T01:22:27.859Z,17.52
2023-04-30T01:25:31.625Z,18.95
2023-04-30T01:28:02.671Z,17.77
2023-04-30T01:30:30.632Z,17.88
2023-04-30T01:32:57.069Z,21.55
2023-04-30T01:35:34.824Z,17.48
2023-04-30T01:38:15.556Z,19.05
2023-04-30T01:40:48.955Z,16.88
2023-04-30T01:43:40.076Z,18.67
2023-04-30T01:46:14.954Z,21.13
2023-04-30T01:48:53.516Z,18.65
2023-04-30T01:51:27.614Z,19.23
2023-04-30T01:56:28.356Z,18.15
2023-04-30T01:58:54.856Z,19.65
2023-04-30T02:01:28.560Z,21.40
2023-04-30T02:03:55.355Z,17.67
2023-04-30T02:06:22.122Z,20.65
2023-04-30T02:08:48.554Z,21.55
2023-04-30T02:11:14.996Z,19.02
2023-04-30T02:13:41.474Z,20.65
2023-04-30T02:16:08.035Z,19.45
2023-04-30T02:18:34.460Z,21.27
2023-04-30T02:21:00.820Z,22.23
2023-04-30T02:23:27.196Z,18.75
2023-04-30T02:25:53.559Z,19.55
2023-04-30T02:28:19.885Z,20.67
2023-04-30T02:30:46.242Z,19.73
2023-04-30T02:33:12.599Z,19.35
2023-04-30T02:35:41.144Z,20.52
2023-04-30T02:38:07.582Z,21.98
2023-04-30T02:40:33.958Z,20.50
2023-04-30T02:43:01.344Z,21.23
2023-04-30T02:45:27.840Z,18.88
2023-04-30T02:47:54.286Z,20.08
2023-04-30T02:50:20.755Z,22.02
2023-04-30T02:52:47.321Z,21.52
2023-04-30T02:55:13.688Z,21.75
2023-04-30T02:57:40.141Z,21.52
2023-04-30T03:00:07.188Z,22.77
2023-04-30T03:02:33.616Z,22.55
2023-04-30T03:04:59.983Z,19.90
2023-04-30T03:07:26.610Z,21.17
2023-04-30T03:09:53.222Z,22.42
2023-04-30T03:12:19.791Z,21.60
2023-04-30T03:14:46.162Z,25.40
2023-04-30T03:17:12.550Z,19.83
2023-04-30T03:19:38.941Z,22.55
2023-04-30T03:22:05.388Z,20.30
2023-04-30T03:24:31.725Z,21.35
2023-04-30T03:26:58.075Z,20.15
2023-04-30T03:29:24.540Z,20.02
2023-04-30T03:31:51.263Z,18.83
2023-04-30T03:34:17.724Z,18.15
2023-04-30T03:36:44.155Z,18.55
2023-04-30T03:39:11.315Z,17.85
2023-04-30T03:41:37.748Z,17.98
2023-04-30T03:44:04.126Z,19.58
2023-04-30T03:46:30.539Z,17.55
2023-04-30T03:48:56.913Z,18.13
2023-04-30T03:51:23.313Z,16.90
2023-04-30T03:53:49.664Z,18.58
2023-04-30T03:56:16.184Z,16.77
2023-04-30T03:58:42.638Z,18.25
2023-04-30T04:01:08.971Z,16.25
2023-04-30T04:03:35.678Z,18.20
2023-04-30T04:06:02.120Z,15.82
2023-04-30T04:08:28.563Z,18.90
2023-04-30T04:10:54.924Z,18.30
2023-04-30T04:13:21.269Z,19.88
2023-04-30T04:15:47.771Z,17.27
2023-04-30T04:18:14.200Z,16.67
2023-04-30T04:20:40.593Z,15.57
2023-04-30T04:23:07.014Z,15.80
2023-04-30T04:25:33.453Z,18.63
2023-04-30T04:27:59.845Z,15.98
2023-04-30T04:30:26.662Z,15.68
2023-04-30T04:32:53.867Z,15.48
2023-04-30T04:35:20.535Z,17.90
2023-04-30T04:37:46.930Z,18.08
2023-04-30T04:40:13.942Z,16.88
2023-04-30T04:42:40.441Z,18.25
2023-04-30T04:45:07.991Z,15.70
2023-04-30T04:47:34.420Z,15.93
2023-04-30T04:50:00.915Z,16.60
2023-04-30T04:52:27.296Z,17.92
2023-04-30T04:54:53.716Z,18.90
2023-04-30T04:57:20.094Z,16.20
2023-04-30T04:59:46.474Z,15.25
2023-04-30T05:02:12.862Z,17.85
2023-04-30T05:04:39.234Z,13.95
2023-04-30T05:07:05.609Z,15.60
2023-04-30T05:09:31.984Z,16.05
2023-04-30T05:11:58.359Z,14.65
2023-04-30T05:14:24.737Z,15.20
2023-04-30T05:16:51.244Z,15.00
2023-04-30T05:19:17.633Z,14.60
2023-04-30T05:21:44.069Z,16.48
2023-04-30T05:24:10.480Z,14.57
2023-04-30T05:26:36.828Z,18.05
2023-04-30T05:29:03.345Z,17.88
2023-04-30T05:31:29.695Z,15.10
2023-04-30T05:33:56.072Z,16.08
2023-04-30T05:36:22.457Z,16.42
2023-04-30T05:38:48.857Z,19.83
2023-04-30T05:41:15.234Z,18.42
2023-04-30T05:43:41.604Z,19.58
2023-04-30T05:46:08.044Z,17.58
2023-04-30T05:48:34.973Z,15.65
2023-04-30T05:51:01.664Z,16.05
2023-04-30T05:53:28.066Z,16.00
2023-04-30T05:55:54.473Z,16.80
2023-04-30T05:58:20.895Z,16.35
2023-04-30T06:00:50.747Z,15.00
2023-04-30T06:03:17.156Z,15.43
2023-04-30T06:05:44.128Z,17.75
2023-04-30T06:08:10.585Z,13.20
2023-04-30T06:10:38.300Z,12.70
2023-04-30T06:13:04.939Z,12.23
2023-04-30T06:15:31.358Z,11.68
2023-04-30T06:17:58.275Z,10.27
2023-04-30T06:20:24.712Z,10.20
2023-04-30T06:22:51.108Z,8.10
2023-04-30T06:25:17.433Z,8.20
2023-04-30T06:27:43.807Z,10.27
2023-04-30T06:30:10.388Z,7.40
2023-04-30T06:32:36.935Z,9.25
2023-04-30T06:35:03.305Z,8.50
2023-04-30T06:37:30.631Z,7.72
2023-04-30T06:39:58.226Z,10.43
2023-04-30T06:42:24.570Z,8.93
2023-04-30T06:44:50.924Z,7.80
2023-04-30T06:47:17.233Z,7.30
2023-04-30T06:49:43.627Z,7.20
2023-04-30T06:52:10.030Z,8.48
2023-04-30T06:54:36.422Z,10.82
2023-04-30T06:57:03.152Z,10.80
2023-04-30T06:59:31.800Z,9.75
2023-04-30T07:01:58.203Z,10.43
2023-04-30T07:04:24.568Z,13.65
2023-04-30T07:06:51.323Z,6.15
2023-04-30T07:09:17.665Z,7.03
2023-04-30T07:11:45.103Z,6.20
2023-04-30T07:14:11.431Z,7.13
2023-04-30T07:16:37.820Z,5.38
2023-04-30T07:19:04.252Z,6.40
2023-04-30T07:21:32.764Z,7.97
2023-04-30T07:23:59.125Z,8.80
2023-04-30T07:26:26.382Z,8.82
2023-04-30T07:28:52.938Z,6.88
2023-04-30T07:31:19.456Z,5.15
2023-04-30T07:33:45.958Z,7.85
2023-04-30T07:36:12.326Z,6.60
2023-04-30T07:38:38.652Z,5.30
2023-04-30T07:41:05.054Z,5.80
2023-04-30T07:43:31.927Z,6.85
2023-04-30T07:45:58.539Z,8.90
2023-04-30T07:48:24.972Z,4.50
2023-04-30T07:50:52.902Z,5.03
2023-04-30T07:53:19.703Z,5.82
2023-04-30T07:55:46.364Z,9.23
2023-04-30T07:58:12.767Z,5.78
2023-04-30T08:00:39.161Z,8.48
2023-04-30T08:03:05.811Z,5.35
2023-04-30T08:05:32.347Z,6.22
2023-04-30T08:07:58.720Z,5.15
2023-04-30T08:10:29.100Z,5.32
2023-04-30T08:12:55.546Z,6.32
2023-04-30T08:15:22.028Z,5.30
2023-04-30T08:17:51.519Z,5.25
2023-04-30T08:20:18.525Z,6.53
2023-04-30T08:22:45.502Z,6.95
2023-04-30T08:25:14.936Z,5.93
2023-04-30T08:27:41.343Z,7.30
2023-04-30T08:30:08.643Z,5.57
2023-04-30T08:32:38.694Z,5.30
2023-04-30T08:35:06.027Z,6.22
2023-04-30T08:37:32.559Z,8.45
2023-04-30T08:39:59.058Z,8.10
2023-04-30T08:42:27.379Z,6.20
2023-04-30T08:44:53.791Z,6.97
2023-04-30T08:47:20.807Z,6.53
2023-04-30T08:49:47.368Z,6.63
2023-04-30T08:52:14.013Z,10.82
2023-04-30T08:54:40.471Z,6.90
2023-04-30T08:57:07.309Z,7.18
2023-04-30T08:59:33.679Z,6.38
2023-04-30T09:02:01.579Z,6.70
2023-04-30T09:04:28.288Z,5.82
2023-04-30T09:06:58.927Z,6.65
2023-04-30T09:09:29.551Z,6.70
2023-04-30T09:12:11.326Z,6.47
2023-04-30T09:14:40.082Z,5.55
2023-04-30T09:17:06.460Z,5.55
2023-04-30T09:19:32.803Z,5.25
2023-04-30T09:21:59.174Z,6.78
2023-04-30T09:24:25.627Z,3.78
2023-04-30T09:26:52.343Z,6.03
2023-04-30T09:29:18.773Z,4.28
2023-04-30T09:31:48.051Z,4.78
2023-04-30T09:34:15.062Z,5.10
2023-04-30T09:36:57.158Z,3.42
2023-04-30T09:39:23.937Z,5.07
2023-04-30T09:41:51.589Z,4.28
2023-04-30T09:44:32.010Z,3.42
2023-04-30T09:46:59.100Z,3.08
2023-04-30T09:49:26.696Z,2.72
2023-04-30T09:51:57.148Z,6.82
2023-04-30T09:54:29.197Z,3.67
2023-04-30T09:56:58.044Z,3.88
2023-04-30T09:59:30.756Z,3.15
2023-04-30T10:02:02.331Z,3.30
2023-04-30T10:04:34.518Z,3.42
2023-04-30T10:07:03.898Z,3.03
2023-04-30T10:09:54.915Z,4.78
2023-04-30T10:12:35.216Z,1.70
2023-04-30T10:15:11.366Z,2.70
2023-04-30T10:17:41.180Z,3.15
2023-04-30T10:20:09.598Z,2.92
2023-04-30T10:22:36.415Z,6.60
2023-04-30T10:25:03.328Z,1.70
2023-04-30T10:27:30.324Z,1.90
2023-04-30T10:29:57.438Z,1.90
2023-04-30T10:32:26.076Z,2.40
2023-04-30T10:35:13.379Z,5.63
2023-04-30T10:37:44.747Z,2.38
2023-04-30T10:40:11.517Z,1.90
2023-04-30T10:42:38.606Z,2.05
2023-04-30T10:45:05.326Z,2.58
2023-04-30T10:47:31.841Z,1.73
2023-04-30T10:50:05.316Z,3.25
2023-04-30T10:52:31.682Z,2.80
2023-04-30T10:54:58.120Z,1.45
2023-04-30T10:57:29.519Z,1.50
2023-04-30T11:00:08.056Z,2.75
2023-04-30T11:02:42.755Z,2.13
2023-04-30T11:05:16.159Z,1.90
2023-04-30T11:07:56.634Z,1.75
2023-04-30T11:10:26.775Z,1.30
2023-04-30T11:12:55.590Z,1.48
2023-04-30T11:15:25.876Z,1.20
2023-04-30T11:17:57.012Z,1.88
2023-04-30T11:20:24.352Z,4.32
2023-04-30T11:23:15.525Z,1.60
2023-04-30T11:25:46.850Z,1.27
2023-04-30T11:28:19.067Z,1.40
2023-04-30T11:30:56.507Z,1.50
2023-04-30T11:33:24.698Z,3.30
2023-04-30T11:35:52.832Z,2.10
2023-04-30T11:38:37.678Z,1.52
2023-04-30T11:41:04.738Z,1.30
2023-04-30T11:43:33.343Z,1.50
2023-04-30T11:46:14.038Z,1.38
2023-04-30T11:48:45.110Z,1.38
2023-04-30T11:51:15.915Z,0.75
2023-04-30T11:53:42.572Z,1.67
2023-04-30T11:56:08.987Z,0.73
2023-04-30T11:58:38.072Z,0.80
2023-04-30T12:01:09.391Z,1.00
2023-04-30T12:03:46.309Z,1.65
2023-04-30T12:06:21.715Z,0.80
2023-04-30T12:08:48.154Z,1.02
2023-04-30T12:11:29.174Z,0.52
2023-04-30T12:14:00.859Z,0.82
2023-04-30T12:16:28.516Z,0.70
2023-04-30T12:18:55.863Z,0.70
2023-04-30T12:21:22.997Z,0.50
2023-04-30T12:23:49.509Z,0.70
2023-04-30T12:26:15.926Z,0.68
2023-04-30T12:28:42.351Z,0.55
2023-04-30T12:31:08.912Z,0.40
2023-04-30T12:33:36.948Z,0.40
2023-04-30T12:36:03.717Z,0.40
2023-04-30T12:38:30.089Z,0.50
2023-04-30T12:40:57.792Z,0.60
2023-04-30T12:43:24.111Z,2.25
2023-04-30T12:45:55.508Z,0.80
2023-04-30T12:48:25.967Z,0.50
2023-04-30T12:50:58.326Z,2.25
2023-04-30T12:53:24.801Z,0.70
2023-04-30T12:56:10.810Z,0.50
2023-04-30T12:58:38.798Z,0.50
2023-04-30T13:01:05.990Z,0.73
2023-04-30T13:03:32.519Z,1.13
2023-04-30T13:05:59.478Z,1.15
2023-04-30T13:08:26.254Z,0.40
2023-04-30T13:10:53.032Z,0.47
2023-04-30T13:13:21.474Z,0.68
2023-04-30T13:15:48.262Z,1.50
2023-04-30T13:18:16.316Z,0.60
2023-04-30T13:20:43.788Z,0.80
2023-04-30T13:23:11.842Z,0.60
2023-04-30T13:25:39.173Z,0.70
2023-04-30T13:28:05.577Z,3.10
2023-04-30T13:30:32.099Z,1.33
2023-04-30T13:32:59.189Z,0.77
2023-04-30T13:35:25.587Z,0.70
2023-04-30T13:37:53.409Z,0.70
2023-04-30T13:40:23.773Z,0.93
2023-04-30T13:42:50.297Z,1.70
2023-04-30T13:45:19.194Z,0.60
2023-04-30T13:47:46.081Z,0.90
2023-04-30T13:50:12.800Z,1.08
2023-04-30T13:52:39.316Z,0.90
2023-04-30T13:55:06.402Z,1.20
2023-04-30T13:57:33.226Z,0.90
2023-04-30T13:59:59.824Z,0.68
2023-04-30T14:02:28.168Z,1.13
2023-04-30T14:05:05.247Z,0.63
2023-04-30T14:07:32.612Z,0.80
2023-04-30T14:09:59.042Z,0.90
2023-04-30T14:12:25.397Z,1.42
2023-04-30T14:14:51.966Z,0.65
2023-04-30T14:17:18.400Z,1.13
2023-04-30T14:19:44.793Z,0.73
2023-04-30T14:22:11.669Z,2.58
2023-04-30T14:24:37.982Z,0.70
2023-04-30T14:27:04.366Z,1.85
2023-04-30T14:29:30.760Z,0.82
2023-04-30T14:31:57.954Z,0.80
2023-04-30T14:34:24.541Z,0.68
2023-04-30T14:36:50.939Z,5.05
2023-04-30T14:39:17.363Z,0.60
2023-04-30T14:41:44.127Z,0.85
2023-04-30T14:44:11.572Z,0.63
2023-04-30T14:46:37.997Z,0.70
2023-04-30T14:49:04.445Z,2.88
2023-04-30T14:51:31.864Z,0.75
2023-04-30T14:53:59.040Z,0.80
2023-04-30T14:56:25.475Z,0.95
2023-04-30T14:58:52.234Z,1.17
2023-04-30T15:01:18.671Z,1.13
2023-04-30T15:03:45.753Z,0.60
2023-04-30T15:06:13.676Z,2.38
2023-04-30T15:08:40.829Z,0.80
2023-04-30T15:11:09.670Z,0.82
2023-04-30T15:13:37.200Z,1.55
2023-04-30T15:16:03.689Z,0.80
2023-04-30T15:18:30.215Z,0.75
2023-04-30T15:20:56.528Z,1.42
2023-04-30T15:23:22.871Z,0.88
2023-04-30T15:25:49.473Z,3.03
2023-04-30T15:28:16.816Z,1.52
2023-04-30T15:30:43.317Z,1.15
2023-04-30T15:33:09.729Z,0.80
2023-04-30T15:35:36.276Z,0.90
2023-04-30T15:38:02.713Z,1.23
2023-04-30T15:40:29.156Z,0.98
2023-04-30T15:42:55.624Z,1.17
2023-04-30T15:45:24.617Z,0.88
2023-04-30T15:47:51.458Z,1.63
2023-04-30T15:50:17.862Z,1.20
2023-04-30T15:52:44.345Z,0.50
2023-04-30T15:55:10.693Z,0.90
2023-04-30T15:57:37.096Z,0.60
2023-04-30T16:00:04.890Z,0.93
2023-04-30T16:02:31.798Z,0.85
2023-04-30T16:04:58.191Z,1.05
2023-04-30T16:07:24.669Z,0.80
2023-04-30T16:09:51.035Z,2.72
2023-04-30T16:12:17.850Z,1.08
2023-04-30T16:14:44.237Z,0.70
2023-04-30T16:17:12.864Z,1.05
2023-04-30T16:19:39.257Z,0.65
2023-04-30T16:22:05.881Z,1.65
2023-04-30T16:24:32.281Z,1.08
2023-04-30T16:26:59.026Z,0.90
2023-04-30T16:29:25.885Z,0.85
2023-04-30T16:31:52.394Z,1.52
2023-04-30T16:34:19.065Z,0.70
2023-04-30T16:36:45.968Z,0.93
2023-04-30T16:39:12.286Z,3.42
2023-04-30T16:41:38.661Z,0.80
2023-04-30T16:44:05.392Z,2.63
2023-04-30T16:46:31.902Z,2.10
2023-04-30T16:48:58.346Z,0.60
2023-04-30T16:51:24.773Z,1.13
2023-04-30T16:53:51.104Z,0.85
2023-04-30T16:56:17.608Z,1.50
2023-04-30T16:58:44.114Z,1.00
2023-04-30T17:01:10.822Z,1.13
2023-04-30T17:03:37.410Z,0.75
2023-04-30T17:06:06.039Z,1.50
2023-04-30T17:08:32.396Z,1.98
2023-04-30T17:10:58.877Z,1.23
2023-04-30T17:13:25.909Z,0.80
2023-04-30T17:15:56.218Z,1.23
2023-04-30T17:18:22.673Z,0.73
2023-04-30T17:20:49.546Z,0.82
2023-04-30T17:23:16.548Z,1.25
2023-04-30T17:25:43.111Z,1.42
2023-04-30T17:28:09.466Z,1.73
2023-04-30T17:30:36.025Z,1.05
2023-04-30T17:33:04.269Z,1.50
2023-04-30T17:35:30.678Z,1.00
2023-04-30T17:37:57.088Z,2.80
2023-04-30T17:40:23.645Z,1.10
2023-04-30T17:42:51.846Z,1.88
2023-04-30T17:45:18.943Z,1.17
2023-04-30T17:47:45.803Z,1.20
2023-04-30T17:50:12.264Z,1.33
2023-04-30T17:52:38.796Z,1.20
2023-04-30T17:55:07.551Z,1.63
2023-04-30T17:57:34.440Z,2.60
2023-04-30T18:00:01.174Z,1.70
2023-04-30T18:02:27.877Z,1.80
2023-04-30T18:04:54.306Z,1.70
2023-04-30T18:07:20.700Z,1.58
2023-04-30T18:09:47.312Z,2.55
2023-04-30T18:12:14.120Z,1.98
2023-04-30T18:14:40.609Z,1.40
2023-04-30T18:17:07.169Z,3.15
2023-04-30T18:19:33.552Z,2.17
2023-04-30T18:22:00.464Z,1.85
2023-04-30T18:24:28.336Z,2.53
2023-04-30T18:26:55.222Z,2.10
2023-04-30T18:29:21.674Z,3.83
2023-04-30T18:31:48.547Z,1.35
2023-04-30T18:34:14.921Z,1.40
2023-04-30T18:36:44.127Z,3.45
2023-04-30T18:39:13.232Z,2.80
2023-04-30T18:41:39.640Z,3.83
2023-04-30T18:44:06.784Z,4.65
2023-04-30T18:46:33.470Z,3.97
2023-04-30T18:49:00.016Z,3.15
2023-04-30T18:51:26.432Z,2.35
2023-04-30T18:53:52.996Z,5.53
2023-04-30T18:56:19.471Z,3.53
2023-04-30T18:58:46.860Z,2.67
2023-04-30T19:01:13.525Z,2.38
2023-04-30T19:03:40.904Z,2.53
2023-04-30T19:06:08.017Z,1.67
2023-04-30T19:08:37.983Z,2.33
2023-04-30T19:11:04.351Z,1.92
2023-04-30T19:13:31.559Z,2.22
2023-04-30T19:15:57.928Z,2.13
2023-04-30T19:18:24.892Z,2.15
2023-04-30T19:21:01.914Z,3.50
2023-04-30T19:23:30.360Z,3.95
2023-04-30T19:25:57.866Z,2.75
2023-04-30T19:28:24.288Z,5.60
2023-04-30T19:30:54.115Z,1.80
2023-04-30T19:33:21.799Z,3.38
2023-04-30T19:35:53.249Z,2.63
2023-04-30T19:38:23.194Z,3.67
2023-04-30T19:40:52.238Z,3.45
2023-04-30T19:43:19.564Z,2.40
2023-04-30T19:45:53.277Z,3.85
2023-04-30T19:48:21.234Z,3.00
2023-04-30T19:50:48.299Z,3.50
2023-04-30T19:53:16.462Z,2.47
2023-04-30T19:55:43.145Z,2.08
2023-04-30T19:58:09.711Z,2.05
2023-04-30T20:00:37.685Z,2.35
2023-04-30T20:03:05.203Z,1.73
2023-04-30T20:05:32.073Z,3.78
2023-04-30T20:07:58.714Z,3.67
2023-04-30T20:10:25.212Z,2.08
2023-04-30T20:12:54.687Z,2.85
2023-04-30T20:15:22.471Z,4.03
2023-04-30T20:17:50.163Z,2.45
2023-04-30T20:20:17.112Z,3.10
2023-04-30T20:22:43.536Z,2.33
2023-04-30T20:25:09.997Z,2.15
2023-04-30T20:27:36.383Z,1.70
2023-04-30T20:30:04.546Z,2.20
2023-04-30T20:32:31.528Z,1.80
2023-04-30T20:35:00.554Z,5.18
2023-04-30T20:37:26.961Z,2.13
2023-04-30T20:39:53.619Z,5.65
2023-04-30T20:42:20.287Z,2.25
2023-04-30T20:44:47.512Z,3.90
2023-04-30T20:47:16.382Z,1.63
2023-04-30T20:49:43.468Z,1.80
2023-04-30T20:52:12.028Z,1.70
2023-04-30T20:54:38.996Z,1.95
2023-04-30T20:57:06.002Z,2.97
2023-04-30T20:59:32.622Z,1.85
2023-04-30T21:01:59.045Z,1.98
2023-04-30T21:04:25.608Z,2.80
2023-04-30T21:06:51.986Z,2.58
2023-04-30T21:09:18.417Z,2.35
2023-04-30T21:11:44.959Z,3.47
2023-04-30T21:14:11.335Z,1.75
2023-04-30T21:16:38.019Z,1.40
2023-04-30T21:19:04.460Z,1.67
2023-04-30T21:21:30.799Z,2.47
2023-04-30T21:23:57.431Z,3.17
2023-04-30T21:26:23.847Z,2.78
2023-04-30T21:28:52.334Z,3.53
2023-04-30T21:31:18.781Z,2.35
2023-04-30T21:33:46.126Z,2.25
2023-04-30T21:36:12.644Z,2.25
2023-04-30T21:38:38.965Z,3.13
2023-04-30T21:41:05.332Z,3.55
2023-04-30T21:43:31.699Z,3.33
2023-04-30T21:46:04.083Z,6.15
2023-04-30T21:48:30.523Z,4.60
2023-04-30T21:50:56.873Z,3.83
2023-04-30T21:53:23.236Z,5.50
2023-04-30T21:55:49.720Z,4.22
2023-04-30T21:58:16.078Z,4.15
2023-04-30T22:00:42.922Z,3.80
2023-04-30T22:03:10.071Z,4.50
2023-04-30T22:05:37.095Z,4.88
2023-04-30T22:08:04.124Z,6.63
2023-04-30T22:10:31.298Z,5.38
2023-04-30T22:12:57.681Z,4.25
2023-04-30T22:15:27.442Z,6.03
2023-04-30T22:17:58.668Z,3.90
2023-04-30T22:20:25.081Z,3.38
2023-04-30T22:22:52.703Z,3.92
2023-04-30T22:25:19.256Z,3.33
2023-04-30T22:27:45.795Z,3.85
2023-04-30T22:30:12.517Z,3.47
2023-04-30T22:32:39.056Z,2.88
2023-04-30T22:35:07.006Z,3.30
2023-04-30T22:37:34.764Z,4.80
2023-04-30T22:40:01.123Z,2.90
2023-04-30T22:42:28.496Z,4.03
2023-04-30T22:44:54.916Z,4.18
2023-04-30T22:47:21.387Z,2.75
2023-04-30T22:49:48.034Z,3.15
2023-04-30T22:52:14.569Z,3.65
2023-04-30T22:54:41.261Z,2.25
2023-04-30T22:57:07.610Z,3.50
2023-04-30T22:59:33.979Z,2.58
2023-04-30T23:02:00.545Z,2.97
2023-04-30T23:04:27.319Z,4.60
2023-04-30T23:06:54.590Z,5.32
2023-04-30T23:09:20.967Z,3.70
2023-04-30T23:11:48.294Z,3.08
2023-04-30T23:14:14.780Z,3.88
2023-04-30T23:16:42.409Z,4.05
2023-04-30T23:19:09.221Z,3.75
2023-04-30T23:21:36.206Z,3.35
2023-04-30T23:24:04.072Z,3.33
2023-04-30T23:26:30.515Z,4.22
2023-04-30T23:28:57.739Z,2.70
2023-04-30T23:31:24.173Z,3.15
2023-04-30T23:33:50.803Z,4.50
2023-04-30T23:36:17.264Z,4.53
2023-04-30T23:38:43.725Z,3.38
2023-04-30T23:41:10.121Z,3.67
2023-04-30T23:43:36.676Z,2.47
2023-04-30T23:46:03.076Z,2.40
2023-04-30T23:48:30.394Z,3.25
2023-04-30T23:51:00.983Z,3.85
2023-04-30T23:53:28.420Z,3.08
2023-04-30T23:55:58.353Z,3.67
2023-04-30T23:58:25.315Z,4.15
